Weather at Wyeth Pharmaceuticals Heliport

Public forecast

Using degrees Fahrenheit for public forecast. Weather courtesy of forecast.io.

Closest aviation weather report (METAR) to Wyeth Pharmaceuticals Heliport

Closest report is Heritage Field, 6.5 nm (12.0 km) NW. Retrieved 2020/09/19 01:54 UTC (31 minutes ago):

KPTW 190154Z AUTO 35007KT 10SM CLR 13/00 A3017 RMK AO2 SLP214 T01280000

Closest aviation forecast (TAF) to Wyeth Pharmaceuticals Heliport

Closest forecast is Philadelphia International Airport, 20.0 nm (37.1 km) SSE. Retrieved 2020-09-19 00:22 UTC (2 hours ago):

TAF KPHL 182320Z 1900/2006 01011KT P6SM SCT200 FM190900 02009KT P6SM SKC FM191800 03011KT P6SM SKC